Time;durP1;ratioP1;P1;durP2;ratioP2;P2;SDS_P1;SDS_P2;PMS_P1;PMS_P2;Temp;Humidity;BMP_temperature;BMP_pressure;BME280_temperature;BME280_humidity;BME280_pressure;Samples;Min_cycle;Max_cycle;Signal;HPM_P1;HPM_P2
2022/12/16 00:00:26;;;;;;;64.47;30.17;;;;;;;-2.08;95.64;94587.59;2058630;28;20042;-55
2022/12/16 00:01:27;;;;;;;65.03;30.15;;;;;;;-2.03;95.05;94594.28;2058591;28;20070;-56
2022/12/16 00:02:28;;;;;;;68.95;31.65;;;;;;;-2.08;95.71;94598.63;2059077;28;20046;-59
2022/12/16 00:03:29;;;;;;;63.92;30.95;;;;;;;-2.05;95.62;94601.09;2058854;28;20061;-59
2022/12/16 00:04:30;;;;;;;66.38;29.95;;;;;;;-2.10;95.56;94597.81;2058271;28;20490;-59
2022/12/16 00:05:31;;;;;;;67.85;31.08;;;;;;;-2.08;94.83;94606.25;2058692;28;20049;-59
2022/12/16 00:06:32;;;;;;;59.53;28.63;;;;;;;-2.08;95.15;94607.97;2058899;28;20055;-59
2022/12/16 00:07:34;;;;;;;65.90;30.42;;;;;;;-2.10;95.13;94613.06;2058286;28;20055;-64
2022/12/16 00:08:36;;;;;;;61.90;31.77;;;;;;;-2.10;95.39;94600.34;2058882;28;20051;-64
2022/12/16 00:09:37;;;;;;;67.70;30.42;;;;;;;-2.11;95.13;94608.84;2058283;28;20419;-64
2022/12/16 00:10:53;;;;;;;64.72;29.67;;;;;;;-2.15;95.03;94608.94;2058711;28;20051;-64
2022/12/16 00:11:55;;;;;;;69.22;31.75;;;;;;;-2.22;95.70;94610.75;2058249;28;20055;-64
2022/12/16 00:12:56;;;;;;;60.55;29.75;;;;;;;-2.21;95.50;94609.91;2058637;28;20058;-64
2022/12/16 00:13:57;;;;;;;69.25;31.77;;;;;;;-2.16;94.96;94614.91;2058487;28;20042;-64
2022/12/16 00:14:58;;;;;;;67.38;31.90;;;;;;;-2.16;96.20;94614.91;2058853;28;20498;-64
2022/12/16 00:16:02;;;;;;;65.38;30.13;;;;;;;-2.08;95.71;94616.41;2058900;28;20042;-64
2022/12/16 00:17:03;;;;;;;69.43;33.85;;;;;;;-2.13;95.47;94608.03;2057305;28;20055;-63
2022/12/16 00:18:04;;;;;;;67.82;32.15;;;;;;;-2.08;95.46;94613.03;2057925;28;20046;-64
2022/12/16 00:19:06;;;;;;;65.93;32.67;;;;;;;-2.08;95.57;94613.88;2058579;28;20049;-64
2022/12/16 00:20:07;;;;;;;68.32;31.05;;;;;;;-2.03;95.25;94622.25;2058826;28;20038;-64
2022/12/16 00:21:08;;;;;;;73.50;34.33;;;;;;;-2.02;95.62;94618.81;2058980;28;20053;-64
2022/12/16 00:22:09;;;;;;;60.17;30.02;;;;;;;-2.14;95.69;94613.16;2058653;28;20067;-55
2022/12/16 00:23:11;;;;;;;67.93;32.20;;;;;;;-2.17;95.37;94618.31;2057979;28;20513;-55
2022/12/16 00:24:12;;;;;;;70.38;33.72;;;;;;;-2.34;95.08;94614.38;2058818;28;20034;-55
2022/12/16 00:25:13;;;;;;;64.43;30.85;;;;;;;-2.26;94.96;94616.78;2058592;28;20039;-55
2022/12/16 00:26:14;;;;;;;64.78;30.38;;;;;;;-2.25;95.16;94615.91;2058357;28;20053;-55
2022/12/16 00:27:15;;;;;;;72.55;34.08;;;;;;;-2.22;95.70;94611.63;2057925;28;20053;-55
2022/12/16 00:28:17;;;;;;;75.32;35.13;;;;;;;-2.29;95.00;94620.22;2057831;28;20046;-55
2022/12/16 00:29:18;;;;;;;69.35;32.67;;;;;;;-2.25;95.67;94624.38;2058349;28;20049;-56
2022/12/16 00:30:19;;;;;;;70.80;34.85;;;;;;;-2.31;95.37;94613.50;2058689;28;20366;-55
2022/12/16 00:31:20;;;;;;;71.13;33.38;;;;;;;-2.27;95.48;94622.75;2058817;28;20051;-55
2022/12/16 00:32:21;;;;;;;74.97;35.60;;;;;;;-2.30;96.02;94622.78;2057944;28;20058;-58
2022/12/16 00:33:24;;;;;;;74.20;33.10;;;;;;;-2.29;96.01;94616.84;2057884;28;20061;-58
2022/12/16 00:34:25;;;;;;;77.70;34.13;;;;;;;-2.32;96.05;94615.19;2058667;28;20051;-59
2022/12/16 00:35:26;;;;;;;77.78;34.53;;;;;;;-2.32;96.26;94622.00;2058762;28;20050;-58
2022/12/16 00:36:27;;;;;;;83.88;37.22;;;;;;;-2.18;95.56;94620.00;2058620;28;20055;-58
2022/12/16 00:37:28;;;;;;;79.32;35.95;;;;;;;-2.27;95.90;94620.22;2058134;28;20486;-59
2022/12/16 00:38:29;;;;;;;86.75;36.65;;;;;;;-2.35;96.09;94617.81;2058692;28;20050;-59
2022/12/16 00:39:31;;;;;;;89.57;38.65;;;;;;;-2.29;96.43;94624.47;2058599;28;20058;-59
2022/12/16 00:40:32;;;;;;;86.80;40.13;;;;;;;-2.35;96.21;94607.63;2058701;28;20496;-59
2022/12/16 00:41:33;;;;;;;81.10;37.92;;;;;;;-2.33;95.98;94628.75;2058576;28;20051;-59
2022/12/16 00:42:34;;;;;;;90.13;38.88;;;;;;;-2.34;96.20;94618.63;2058783;28;20054;-61
2022/12/16 00:43:35;;;;;;;97.22;40.28;;;;;;;-2.29;96.25;94621.94;2058413;28;20065;-62
2022/12/16 00:44:36;;;;;;;96.32;40.60;;;;;;;-2.32;97.09;94624.53;2058236;28;20482;-62
2022/12/16 00:45:38;;;;;;;86.85;39.13;;;;;;;-2.34;96.46;94622.00;2058688;28;20043;-61
2022/12/16 00:46:39;;;;;;;95.10;38.72;;;;;;;-2.28;96.75;94626.97;2057979;28;20078;-62
2022/12/16 00:47:40;;;;;;;92.68;39.70;;;;;;;-2.28;96.41;94621.06;2058397;28;20041;-56
2022/12/16 00:48:41;;;;;;;92.95;39.53;;;;;;;-2.32;96.48;94635.53;2058743;28;20051;-56
2022/12/16 00:49:42;;;;;;;86.82;39.17;;;;;;;-2.30;96.43;94632.97;2058670;28;20054;-56
2022/12/16 00:50:47;;;;;;;89.90;39.28;;;;;;;-2.38;96.33;94634.81;2058230;28;20035;-56
2022/12/16 00:51:48;;;;;;;85.93;36.70;;;;;;;-2.41;96.70;94632.31;2057767;28;20047;-55
2022/12/16 00:52:50;;;;;;;88.43;39.08;;;;;;;-2.40;96.10;94645.03;2057865;28;20395;-55
2022/12/16 00:53:51;;;;;;;86.25;38.00;;;;;;;-2.32;96.19;94639.81;2056849;28;20058;-56
2022/12/16 00:54:52;;;;;;;89.65;38.03;;;;;;;-2.40;96.71;94637.41;2057753;28;20421;-56
2022/12/16 00:56:07;;;;;;;85.47;37.33;;;;;;;-2.36;96.15;94641.53;2058277;28;20035;-57
2022/12/16 00:57:08;;;;;;;91.50;38.95;;;;;;;-2.33;95.81;94646.56;2058499;28;20046;-59
2022/12/16 00:58:09;;;;;;;87.13;38.15;;;;;;;-2.35;96.79;94647.47;2058380;28;20035;-58
2022/12/16 00:59:10;;;;;;;85.13;37.40;;;;;;;-2.34;96.74;94651.69;2057505;28;20054;-58
2022/12/16 01:00:12;;;;;;;90.10;36.38;;;;;;;-2.32;96.61;94639.81;2058453;28;20057;-58
2022/12/16 01:01:13;;;;;;;86.03;38.22;;;;;;;-2.28;96.35;94644.78;2058492;28;20058;-58
2022/12/16 01:02:14;;;;;;;75.45;33.00;;;;;;;-2.27;96.33;94640.56;2057843;28;20077;-58
2022/12/16 01:03:15;;;;;;;79.28;36.33;;;;;;;-2.33;95.96;94638.94;2058453;28;20050;-58
2022/12/16 01:04:17;;;;;;;76.22;36.10;;;;;;;-2.32;95.73;94642.34;2058558;28;20046;-58
2022/12/16 01:05:19;;;;;;;77.72;35.08;;;;;;;-2.25;96.07;94641.34;2058490;28;20470;-58
2022/12/16 01:06:20;;;;;;;71.43;34.55;;;;;;;-2.18;95.31;94642.06;2058329;28;20042;-58
2022/12/16 01:07:22;;;;;;;76.97;34.05;;;;;;;-2.20;96.29;94647.16;2058505;28;20066;-55
2022/12/16 01:08:23;;;;;;;73.00;35.10;;;;;;;-2.25;95.61;94639.63;2058438;28;20050;-56
2022/12/16 01:09:24;;;;;;;76.50;35.97;;;;;;;-2.39;95.33;94643.31;2058203;28;20065;-56
2022/12/16 01:10:25;;;;;;;72.45;34.72;;;;;;;-2.34;96.07;94634.72;2058260;28;20057;-55
2022/12/16 01:11:26;;;;;;;71.57;33.85;;;;;;;-2.19;95.47;94641.25;2058016;28;20471;-55
2022/12/16 01:12:27;;;;;;;70.22;32.92;;;;;;;-2.30;95.41;94632.97;2058486;28;20042;-55
2022/12/16 01:13:28;;;;;;;78.65;36.95;;;;;;;-2.31;95.81;94634.66;2058085;28;20057;-56
2022/12/16 01:14:29;;;;;;;82.82;37.00;;;;;;;-2.37;96.03;94631.41;2058104;28;20422;-55
2022/12/16 01:15:31;;;;;;;84.55;37.03;;;;;;;-2.33;95.72;94630.47;2058182;28;20043;-55
2022/12/16 01:16:33;;;;;;;78.75;36.58;;;;;;;-2.30;95.85;94632.97;2058513;28;20062;-56
2022/12/16 01:17:34;;;;;;;78.85;37.63;;;;;;;-2.28;95.93;94636.31;2058445;28;20150;-59
2022/12/16 01:18:36;;;;;;;82.97;36.63;;;;;;;-2.24;96.19;94637.94;2057719;28;20494;-58
2022/12/16 01:19:37;;;;;;;80.38;36.80;;;;;;;-2.18;95.55;94639.53;2058418;28;20043;-58
2022/12/16 01:20:38;;;;;;;83.90;36.65;;;;;;;-2.20;96.08;94644.63;2058329;28;20057;-58
2022/12/16 01:21:39;;;;;;;84.15;37.50;;;;;;;-2.26;96.32;94647.31;2058413;28;20509;-58
2022/12/16 01:22:40;;;;;;;81.53;36.15;;;;;;;-2.29;95.55;94650.75;2058593;28;20042;-62
2022/12/16 01:23:41;;;;;;;82.32;36.55;;;;;;;-2.30;95.84;94646.53;2058145;28;20045;-62
2022/12/16 01:24:43;;;;;;;83.97;38.17;;;;;;;-2.29;95.74;94649.91;2058180;28;20414;-61
2022/12/16 01:25:44;;;;;;;77.60;35.33;;;;;;;-2.25;95.78;94657.44;2057940;28;20376;-62
2022/12/16 01:26:45;;;;;;;86.10;37.95;;;;;;;-2.33;95.49;94659.28;2058316;28;20050;-61
2022/12/16 01:27:46;;;;;;;85.22;38.75;;;;;;;-2.35;95.56;94655.94;2058055;28;20069;-61
2022/12/16 01:28:48;;;;;;;73.57;35.58;;;;;;;-2.30;96.00;94653.28;2057655;28;20078;-61
2022/12/16 01:29:49;;;;;;;78.30;37.03;;;;;;;-2.23;96.40;94660.78;2057622;28;20062;-62
2022/12/16 01:31:00;;;;;;;77.65;37.00;;;;;;;-2.21;95.10;94658.22;2057797;28;20043;-62
2022/12/16 01:32:01;;;;;;;81.07;36.45;;;;;;;-2.22;95.39;94656.53;2057646;28;20121;-64
2022/12/16 01:33:02;;;;;;;79.78;35.90;;;;;;;-2.25;95.91;94666.75;2058200;28;20043;-64
2022/12/16 01:34:03;;;;;;;73.50;34.13;;;;;;;-2.26;95.86;94660.84;2058220;28;20402;-64
2022/12/16 01:35:05;;;;;;;80.65;37.08;;;;;;;-2.36;95.02;94656.78;2057610;28;20115;-64
2022/12/16 01:36:06;;;;;;;82.07;37.60;;;;;;;-2.36;95.67;94649.16;2057881;28;20022;-64
2022/12/16 01:37:10;;;;;;;80.40;38.15;;;;;;;-2.30;96.27;94654.16;2057517;28;20054;-57
2022/12/16 01:38:11;;;;;;;76.10;34.10;;;;;;;-2.23;96.59;94665.88;2049624;28;20493;-56
2022/12/16 01:39:13;;;;;;;82.72;38.28;;;;;;;-2.31;95.49;94661.81;2057415;28;20055;-56
2022/12/16 01:40:16;;;;;;;78.63;35.40;;;;;;;-2.28;96.10;94664.28;2058224;28;20043;-55
2022/12/16 01:41:17;;;;;;;76.05;35.72;;;;;;;-2.32;95.25;94666.06;2049308;29;20034;-55
2022/12/16 01:42:20;;;;;;;77.75;35.00;;;;;;;-2.22;96.41;94669.25;2049541;28;20103;-58
2022/12/16 01:43:26;;;;;;;79.70;35.40;;;;;;;-2.26;95.68;94668.47;2057828;28;20038;-59
2022/12/16 01:44:27;;;;;;;72.57;35.05;;;;;;;-2.23;95.20;94668.41;2057885;28;20058;-59
2022/12/16 01:45:33;;;;;;;72.38;33.58;;;;;;;-2.28;96.24;94659.19;2057833;28;20513;-58
2022/12/16 01:46:37;;;;;;;70.35;33.55;;;;;;;-2.24;95.60;94663.38;2057821;28;20058;-58
2022/12/16 01:47:38;;;;;;;80.45;36.72;;;;;;;-2.24;95.25;94663.38;2057275;28;20054;-61
2022/12/16 01:48:45;;;;;;;85.38;36.28;;;;;;;-2.35;95.29;94655.09;2056931;28;20058;-62
2022/12/16 01:49:59;;;;;;;86.35;37.83;;;;;;;-2.32;96.06;94653.34;2057556;28;20050;-62
2022/12/16 01:51:19;;;;;;;84.70;36.75;;;;;;;-2.39;96.10;94645.84;2056521;28;20047;-62
2022/12/16 01:52:31;;;;;;;80.57;35.63;;;;;;;-2.37;96.43;94646.66;2057457;28;20474;-62
2022/12/16 01:53:32;;;;;;;83.78;36.33;;;;;;;-2.39;95.90;94633.16;2060211;28;20042;-62
2022/12/16 01:54:38;;;;;;;85.00;36.33;;;;;;;-2.38;95.80;94639.88;2057102;28;20050;-62
2022/12/16 01:55:42;;;;;;;84.85;36.92;;;;;;;-2.34;96.05;94633.91;2049320;28;20081;-62
2022/12/16 01:56:46;;;;;;;89.25;38.47;;;;;;;-2.31;95.99;94642.28;2042099;29;20423;-62
2022/12/16 01:57:50;;;;;;;78.07;34.33;;;;;;;-2.31;95.96;94646.53;2049472;28;20051;-62
2022/12/16 01:58:51;;;;;;;80.65;35.50;;;;;;;-2.28;95.69;94646.50;2056495;28;20659;-62
2022/12/16 01:59:52;;;;;;;72.30;33.63;;;;;;;-2.23;95.69;94648.06;2056379;28;20050;-62
2022/12/16 02:00:53;;;;;;;79.25;36.35;;;;;;;-2.28;95.49;94651.56;2057156;28;20426;-62
2022/12/16 02:01:55;;;;;;;81.70;38.33;;;;;;;-2.33;95.84;94655.91;2056336;28;20050;-61
2022/12/16 02:02:56;;;;;;;83.47;38.40;;;;;;;-2.42;95.05;94663.72;2056513;28;20054;-62
2022/12/16 02:03:57;;;;;;;72.30;34.70;;;;;;;-2.48;95.07;94660.41;2057612;28;20035;-61
2022/12/16 02:06:18;;;;;;;78.72;34.60;;;;;;;-2.67;95.98;94657.38;2051711;28;20050;-62
2022/12/16 02:07:19;;;;;;;79.13;36.22;;;;;;;-2.66;95.30;94653.94;2043851;29;20095;-62
2022/12/16 02:08:21;;;;;;;96.75;39.00;;;;;;;-2.65;95.43;94652.25;2048827;28;20055;-61
2022/12/16 02:09:22;;;;;;;82.55;38.97;;;;;;;-2.72;95.47;94655.78;2057255;28;20059;-61
2022/12/16 02:10:32;;;;;;;74.03;34.35;;;;;;;-2.66;95.46;94655.66;2057229;28;20379;-61
2022/12/16 02:11:57;;;;;;;76.93;36.03;;;;;;;-2.60;95.48;94659.78;2050643;28;20577;-62
2022/12/16 02:13:17;;;;;;;75.68;35.55;;;;;;;-2.55;95.84;94663.94;2057193;28;20057;-62
2022/12/16 02:14:36;;;;;;;71.63;33.83;;;;;;;-2.52;95.58;94674.03;2048753;29;20054;-62
2022/12/16 02:15:41;;;;;;;80.82;37.25;;;;;;;-2.55;95.40;94674.09;2053196;28;20051;-62
2022/12/16 02:16:50;;;;;;;81.28;36.53;;;;;;;-2.59;95.24;94677.56;2049115;29;20487;-62
2022/12/16 02:17:59;;;;;;;79.53;37.20;;;;;;;-2.66;95.55;94671.75;2051732;28;20043;-58
2022/12/16 02:19:38;;;;;;;81.90;38.67;;;;;;;-2.67;96.12;94684.50;2044015;29;20035;-59
2022/12/16 02:20:51;;;;;;;80.57;34.88;;;;;;;-2.66;95.30;94686.16;2051695;28;20474;-58
2022/12/16 02:22:11;;;;;;;76.13;35.60;;;;;;;-2.79;95.66;94687.22;2057309;28;20046;-58
2022/12/16 02:23:25;;;;;;;76.18;34.80;;;;;;;-2.75;95.27;94689.69;2043788;29;20441;-58
2022/12/16 02:24:53;;;;;;;81.97;37.47;;;;;;;-2.67;94.96;94694.66;2045017;28;20073;-59
2022/12/16 02:26:17;;;;;;;75.60;33.30;;;;;;;-2.77;95.57;94698.22;2057370;28;20379;-59
2022/12/16 02:27:55;;;;;;;73.30;33.08;;;;;;;-2.83;95.32;94696.59;2051115;28;20406;-62
2022/12/16 02:29:02;;;;;;;70.28;31.63;;;;;;;-2.77;95.41;94704.13;2058001;28;20045;-62
2022/12/16 02:30:05;;;;;;;72.47;32.88;;;;;;;-2.72;95.25;94707.44;2057899;28;20054;-62
2022/12/16 02:31:28;;;;;;;77.32;34.75;;;;;;;-2.77;95.21;94709.19;2056516;28;20062;-61
2022/12/16 02:32:36;;;;;;;76.78;35.53;;;;;;;-2.72;95.05;94709.13;2051065;28;20054;-62
2022/12/16 02:34:12;;;;;;;78.35;36.83;;;;;;;-2.70;94.97;94708.25;2056877;28;20502;-62
2022/12/16 02:35:35;;;;;;;83.55;36.75;;;;;;;-2.79;95.52;94703.31;2050298;28;20045;-62
2022/12/16 02:36:49;;;;;;;72.88;33.00;;;;;;;-2.80;95.34;94710.97;2056255;28;20054;-61
2022/12/16 02:37:59;;;;;;;72.25;33.38;;;;;;;-2.82;95.85;94705.91;2057459;28;20039;-61
2022/12/16 02:39:04;;;;;;;73.72;34.65;;;;;;;-2.77;95.17;94701.59;2057198;28;20506;-62
2022/12/16 02:40:26;;;;;;;73.13;34.78;;;;;;;-2.83;94.90;94714.41;2050109;28;20047;-61
2022/12/16 02:41:41;;;;;;;77.45;33.58;;;;;;;-2.83;95.48;94701.69;2044016;29;20054;-61
2022/12/16 02:42:47;;;;;;;69.75;33.03;;;;;;;-2.82;95.09;94707.59;2052153;28;20073;-62
2022/12/16 02:43:57;;;;;;;73.63;35.00;;;;;;;-2.93;95.27;94697.63;2057098;28;20058;-62
2022/12/16 02:45:07;;;;;;;69.25;33.60;;;;;;;-2.88;94.90;94709.38;2048331;29;20467;-62
2022/12/16 02:46:08;;;;;;;73.20;35.15;;;;;;;-2.82;95.22;94705.91;2050816;28;20039;-61
2022/12/16 02:47:09;;;;;;;70.53;35.35;;;;;;;-2.80;94.87;94713.50;2050465;29;20047;-61
2022/12/16 02:48:10;;;;;;;78.13;36.47;;;;;;;-2.85;94.84;94710.19;2050250;29;20058;-61
2022/12/16 02:49:11;;;;;;;75.25;36.08;;;;;;;-2.85;94.72;94710.19;2059145;28;20046;-62
2022/12/16 02:50:17;;;;;;;80.75;36.95;;;;;;;-2.84;94.61;94715.25;2059449;28;20035;-62
2022/12/16 02:51:18;;;;;;;78.47;35.65;;;;;;;-2.86;94.86;94708.50;2058552;28;20050;-62
2022/12/16 02:52:25;;;;;;;78.10;35.85;;;;;;;-2.86;95.02;94713.59;2057915;28;20070;-62
2022/12/16 02:53:26;;;;;;;79.43;35.28;;;;;;;-2.85;95.24;94711.03;2050580;29;20054;-62
2022/12/16 02:54:27;;;;;;;79.03;35.53;;;;;;;-2.83;94.88;94708.44;2051019;28;20058;-62
2022/12/16 02:55:47;;;;;;;75.28;36.83;;;;;;;-2.88;94.79;94717.00;2058336;28;20050;-62
2022/12/16 02:57:12;;;;;;;73.28;34.97;;;;;;;-2.86;94.43;94711.03;2052924;28;20051;-62
2022/12/16 02:58:30;;;;;;;82.15;35.60;;;;;;;-2.89;94.72;94720.41;2058264;28;20073;-61
2022/12/16 02:59:46;;;;;;;75.47;35.63;;;;;;;-3.07;94.94;94722.38;2050616;29;20043;-61
2022/12/16 03:01:26;;;;;;;72.70;33.35;;;;;;;-3.02;94.02;94723.13;2054929;28;20047;-61
2022/12/16 03:02:53;;;;;;;76.75;33.42;;;;;;;-3.06;95.53;94724.06;2059972;28;20046;-56
2022/12/16 03:04:00;;;;;;;69.50;31.85;;;;;;;-3.04;94.62;94718.09;2058469;28;20050;-55
2022/12/16 03:05:21;;;;;;;78.72;35.10;;;;;;;-3.05;95.23;94723.19;2058840;28;20035;-56
2022/12/16 03:06:22;;;;;;;76.22;34.80;;;;;;;-3.01;94.44;94720.59;2058782;28;20426;-55
2022/12/16 03:07:25;;;;;;;72.25;34.20;;;;;;;-3.01;94.57;94725.66;2050833;28;20042;-58
2022/12/16 03:08:32;;;;;;;68.90;32.75;;;;;;;-3.01;94.26;94723.13;2042808;29;20054;-58
2022/12/16 03:09:34;;;;;;;76.63;35.38;;;;;;;-3.04;94.65;94720.63;2036440;29;20067;-58
2022/12/16 03:10:37;;;;;;;77.50;33.40;;;;;;;-3.04;94.57;94722.34;2035623;29;20051;-58
2022/12/16 03:11:39;;;;;;;72.15;33.97;;;;;;;-3.06;94.25;94717.28;2043116;29;20063;-58
2022/12/16 03:12:40;;;;;;;72.10;33.50;;;;;;;-3.09;94.33;94717.31;2042467;29;20051;-58
2022/12/16 03:13:45;;;;;;;75.90;34.75;;;;;;;-3.08;94.55;94721.53;2034849;29;20508;-58
2022/12/16 03:14:48;;;;;;;77.78;33.55;;;;;;;-3.09;95.29;94724.94;2034723;29;20056;-58
2022/12/16 03:15:51;;;;;;;69.03;32.47;;;;;;;-3.05;95.01;94724.03;2035026;29;20060;-58
2022/12/16 03:16:52;;;;;;;76.43;35.53;;;;;;;-3.02;95.13;94723.13;2035039;29;20423;-58
2022/12/16 03:17:53;;;;;;;71.22;32.70;;;;;;;-3.00;94.44;94721.41;2050487;28;20047;-58
2022/12/16 03:18:55;;;;;;;74.22;35.22;;;;;;;-3.08;94.47;94728.31;2050732;28;20036;-58
2022/12/16 03:20:04;;;;;;;73.38;34.67;;;;;;;-3.09;94.10;94730.03;2042392;29;20051;-58
2022/12/16 03:21:06;;;;;;;73.93;35.25;;;;;;;-3.11;94.25;94735.13;2029081;29;20048;-58
2022/12/16 03:22:08;;;;;;;74.22;33.15;;;;;;;-3.12;94.72;94727.53;2043062;29;20051;-63
2022/12/16 03:23:12;;;;;;;72.88;34.58;;;;;;;-3.08;94.50;94733.41;2049999;29;20051;-64
2022/12/16 03:24:14;;;;;;;84.25;36.90;;;;;;;-3.08;95.18;94728.31;2042625;29;20055;-64
2022/12/16 03:25:15;;;;;;;74.78;36.03;;;;;;;-3.16;94.77;94730.97;2034665;29;20064;-64
2022/12/16 03:26:20;;;;;;;73.88;34.83;;;;;;;-3.08;95.00;94738.47;2034318;29;20416;-64
2022/12/16 03:27:45;;;;;;;73.55;34.38;;;;;;;-3.04;94.30;94737.59;2035297;29;20048;-58
2022/12/16 03:28:51;;;;;;;69.25;32.60;;;;;;;-3.13;94.31;94731.78;2045844;29;20043;-58
2022/12/16 03:30:15;;;;;;;71.45;35.53;;;;;;;-3.16;94.07;94736.03;2045631;29;20051;-58
2022/12/16 03:31:55;;;;;;;73.40;33.03;;;;;;;-3.12;94.73;94735.16;2047189;29;20051;-58
2022/12/16 03:33:05;;;;;;;73.88;33.20;;;;;;;-3.11;94.50;94726.66;2041709;29;20510;-59
2022/12/16 03:34:29;;;;;;;72.53;34.38;;;;;;;-3.10;94.45;94733.44;2040245;29;20052;-58
2022/12/16 03:35:58;;;;;;;68.70;33.35;;;;;;;-3.16;94.24;94734.34;2040739;29;20566;-58
2022/12/16 03:37:01;;;;;;;74.25;33.72;;;;;;;-3.16;94.46;94733.50;2050131;29;20054;-58
2022/12/16 03:38:03;;;;;;;79.38;35.97;;;;;;;-3.26;94.27;94722.66;2050691;29;20042;-58
2022/12/16 03:39:04;;;;;;;75.18;36.10;;;;;;;-3.18;94.59;94738.63;2050568;28;20051;-58
2022/12/16 03:40:06;;;;;;;74.95;35.00;;;;;;;-3.15;94.86;94735.22;2042388;29;20039;-58
2022/12/16 03:41:07;;;;;;;74.82;36.88;;;;;;;-3.13;94.65;94730.91;2042663;29;20043;-58
2022/12/16 03:42:08;;;;;;;77.95;36.38;;;;;;;-3.16;94.46;94729.25;2042265;29;20044;-58
2022/12/16 03:43:10;;;;;;;70.53;34.47;;;;;;;-3.13;94.23;94729.25;2042778;28;20113;-58
2022/12/16 03:44:11;;;;;;;70.80;34.58;;;;;;;-3.13;94.05;94730.91;2050294;28;20035;-58
2022/12/16 03:45:19;;;;;;;76.25;35.47;;;;;;;-3.16;93.84;94720.81;2050137;29;20047;-58
2022/12/16 03:46:21;;;;;;;72.72;34.90;;;;;;;-3.07;94.11;94729.97;2042260;29;20043;-59
2022/12/16 03:47:24;;;;;;;73.90;35.00;;;;;;;-3.03;93.95;94734.16;2042231;29;20059;-55
2022/12/16 03:48:25;;;;;;;80.10;35.15;;;;;;;-3.03;93.76;94736.72;2050072;29;20055;-56
2022/12/16 03:49:27;;;;;;;67.65;33.20;;;;;;;-3.03;94.05;94732.47;2050219;28;20049;-55
2022/12/16 03:50:32;;;;;;;71.45;33.03;;;;;;;-3.01;94.17;94737.53;2050847;28;20050;-56
2022/12/16 03:51:33;;;;;;;77.88;35.78;;;;;;;-3.11;93.72;94741.91;2050977;28;20058;-56
2022/12/16 03:52:35;;;;;;;72.25;34.03;;;;;;;-3.07;94.16;94730.84;2050743;28;20047;-57
2022/12/16 03:53:36;;;;;;;69.72;34.03;;;;;;;-3.10;94.08;94728.34;2050912;28;20066;-55
2022/12/16 03:54:37;;;;;;;74.68;34.33;;;;;;;-3.15;94.10;94732.66;2050832;28;20486;-55
2022/12/16 03:55:38;;;;;;;73.00;33.95;;;;;;;-3.15;94.51;94735.22;2050982;28;20051;-54
2022/12/16 03:56:39;;;;;;;72.32;34.50;;;;;;;-3.25;94.11;94729.41;2050682;28;20055;-55
2022/12/16 03:57:40;;;;;;;70.82;34.30;;;;;;;-3.14;94.25;94740.25;2050715;28;20058;-57
2022/12/16 03:58:42;;;;;;;76.25;34.97;;;;;;;-3.15;94.40;94740.28;2050830;28;20167;-56
2022/12/16 03:59:43;;;;;;;68.68;33.60;;;;;;;-3.15;94.17;94741.13;2050859;28;20494;-56
2022/12/16 04:00:44;;;;;;;77.50;34.70;;;;;;;-3.10;94.97;94748.69;2051031;28;20052;-55
2022/12/16 04:01:45;;;;;;;79.75;36.85;;;;;;;-3.12;94.23;94751.22;2050738;28;20051;-57
2022/12/16 04:02:46;;;;;;;76.03;35.13;;;;;;;-3.10;94.18;94748.69;2051057;28;20054;-62
2022/12/16 04:03:47;;;;;;;77.88;36.45;;;;;;;-3.02;94.04;94754.47;2050213;29;20054;-62
2022/12/16 04:04:49;;;;;;;78.68;36.05;;;;;;;-3.00;93.81;94760.34;2050368;28;20054;-62
2022/12/16 04:05:50;;;;;;;79.68;35.35;;;;;;;-3.00;94.22;94762.91;2051015;28;20055;-62
2022/12/16 04:07:18;;;;;;;74.55;35.40;;;;;;;-3.00;94.02;94759.53;2050298;28;20055;-62
2022/12/16 04:08:12;;;;;;;74.68;33.85;;;;;;;-2.99;94.07;94759.50;2050354;28;20410;-62
2022/12/16 04:09:13;;;;;;;76.10;35.00;;;;;;;-2.99;94.05;94764.59;2051062;28;20055;-62
2022/12/16 04:10:14;;;;;;;79.43;35.60;;;;;;;-2.97;93.92;94764.56;2050467;28;20051;-62
2022/12/16 04:24:44;;;;;;;73.95;31.52;;;;;;;-3.05;94.93;94772.28;2039178;29;20121;-55
2022/12/16 04:25:46;;;;;;;68.80;32.83;;;;;;;-3.04;94.62;94771.44;2039058;29;20048;-56
2022/12/16 04:28:06;;;;;;;74.88;31.63;;;;;;;-3.02;95.30;94771.41;2050464;28;20407;-56
2022/12/16 04:29:07;;;;;;;72.18;34.25;;;;;;;-3.09;94.89;94768.13;2050563;28;20116;-56
2022/12/16 04:30:18;;;;;;;68.43;31.38;;;;;;;-3.01;94.71;94779.00;2050823;28;20050;-56
2022/12/16 04:31:19;;;;;;;74.20;31.90;;;;;;;-3.04;94.19;94781.59;2050407;28;20055;-56
2022/12/16 04:32:21;;;;;;;62.30;30.40;;;;;;;-3.04;94.22;94770.59;2050811;28;20055;-58
2022/12/16 04:34:41;;;;;;;64.78;30.42;;;;;;;-3.04;93.35;94785.84;2049486;29;20565;-58
